createdAt,value
2019-02-10T00:00:41.713Z,100320.20
2019-02-10T00:01:49.801Z,100322.37
2019-02-10T00:02:54.873Z,100311.75
2019-02-10T00:04:00.408Z,100314.77
2019-02-10T00:05:06.092Z,100314.28
2019-02-10T00:06:11.417Z,100317.27
2019-02-10T00:07:16.922Z,100307.98
2019-02-10T00:08:21.959Z,100297.80
2019-02-10T00:09:27.725Z,100305.33
2019-02-10T00:10:32.815Z,100298.70
2019-02-10T00:11:37.785Z,100297.04
2019-02-10T00:13:03.598Z,100293.06
2019-02-10T00:14:08.672Z,100293.54
2019-02-10T00:15:13.967Z,100287.39
2019-02-10T00:16:20.506Z,100282.36
2019-02-10T00:17:25.536Z,100288.36
2019-02-10T00:18:31.435Z,100283.05
2019-02-10T00:19:36.717Z,100280.87
2019-02-10T00:20:41.723Z,100279.43
2019-02-10T00:21:46.722Z,100274.13
2019-02-10T00:22:51.766Z,100272.80
2019-02-10T00:23:56.901Z,100267.97
2019-02-10T00:25:02.359Z,100268.34
2019-02-10T00:26:07.739Z,100266.52
2019-02-10T00:27:13.165Z,100259.89
2019-02-10T00:28:18.257Z,100253.74
2019-02-10T00:29:23.252Z,100251.93
2019-02-10T00:30:28.295Z,100253.59
2019-02-10T00:31:33.424Z,100247.44
2019-02-10T00:32:38.944Z,100242.12
2019-02-10T00:33:44.256Z,100247.44
2019-02-10T00:34:49.589Z,100247.95
2019-02-10T00:35:54.699Z,100246.27
2019-02-10T00:36:59.776Z,100243.25
2019-02-10T00:38:05.397Z,100240.23
2019-02-10T00:39:10.566Z,100240.87
2019-02-10T00:40:15.484Z,100236.05
2019-02-10T00:41:20.671Z,100238.58
2019-02-10T00:42:25.695Z,100232.43
2019-02-10T00:43:31.159Z,100230.26
2019-02-10T00:44:36.142Z,100227.13
2019-02-10T00:45:41.298Z,100229.78
2019-02-10T00:46:46.317Z,100220.48
2019-02-10T00:47:51.365Z,100211.69
2019-02-10T00:48:56.460Z,100211.69
2019-02-10T00:50:01.908Z,100209.52
2019-02-10T00:51:07.216Z,100209.87
2019-02-10T00:52:12.303Z,100203.25
2019-02-10T00:53:17.247Z,100200.31
2019-02-10T00:54:22.305Z,100194.52
2019-02-10T00:55:28.075Z,100186.92
2019-02-10T00:56:33.361Z,100183.27
2019-02-10T00:57:39.007Z,100178.80
2019-02-10T00:58:44.751Z,100181.82
2019-02-10T00:59:49.755Z,100179.16
2019-02-10T01:00:54.962Z,100177.69
2019-02-10T01:02:00.017Z,100172.86
2019-02-10T01:03:05.292Z,100167.07
2019-02-10T01:04:10.691Z,100167.07
2019-02-10T01:05:16.030Z,100167.55
2019-02-10T01:06:21.389Z,100165.63
2019-02-10T01:07:26.516Z,100157.45
2019-02-10T01:08:31.674Z,100155.61
2019-02-10T01:09:36.653Z,100150.31
2019-02-10T01:10:41.716Z,100149.50
2019-02-10T01:11:46.796Z,100152.15
2019-02-10T01:12:51.794Z,100148.30
2019-02-10T01:13:56.897Z,100149.50
2019-02-10T01:15:02.288Z,100140.33
2019-02-10T01:16:07.644Z,100142.63
2019-02-10T01:17:13.550Z,100139.65
2019-02-10T01:18:18.978Z,100139.65
2019-02-10T01:19:24.025Z,100138.32
2019-02-10T01:20:29.188Z,100135.95
2019-02-10T01:21:34.238Z,100137.76
2019-02-10T01:22:39.303Z,100127.75
2019-02-10T01:23:44.706Z,100118.47
2019-02-10T01:24:50.069Z,100114.16
2019-02-10T01:25:55.054Z,100114.16
2019-02-10T01:27:00.060Z,100112.48
2019-02-10T01:28:05.282Z,100114.64
2019-02-10T01:29:11.154Z,100111.84
2019-02-10T01:30:16.706Z,100111.51
2019-02-10T01:31:22.117Z,100104.52
2019-02-10T01:32:27.160Z,100099.21
2019-02-10T01:33:32.462Z,100104.52
2019-02-10T01:34:37.511Z,100097.77
2019-02-10T01:35:43.172Z,100087.96
2019-02-10T01:36:49.821Z,100087.96
2019-02-10T01:37:55.074Z,100087.84
2019-02-10T01:39:00.184Z,100086.02
2019-02-10T01:40:06.281Z,100082.37
2019-02-10T01:41:11.647Z,100078.75
2019-02-10T01:42:17.062Z,100075.61
2019-02-10T01:43:22.070Z,100070.30
2019-02-10T01:44:27.113Z,100070.79
2019-02-10T01:45:32.293Z,100059.81
2019-02-10T01:46:37.572Z,100058.00
2019-02-10T01:47:42.561Z,100057.16
2019-02-10T01:48:47.658Z,100048.72
2019-02-10T01:49:52.703Z,100042.93
2019-02-10T01:50:57.857Z,100045.23
2019-02-10T01:52:03.324Z,100029.75
2019-02-10T01:53:08.327Z,100029.83
2019-02-10T01:54:13.430Z,100018.37
2019-02-10T01:55:18.473Z,100018.70
2019-02-10T01:56:23.763Z,100018.70
2019-02-10T01:57:28.998Z,100012.58
2019-02-10T01:58:33.963Z,100014.72
2019-02-10T01:59:39.010Z,100005.59
2019-02-10T02:00:44.146Z,99988.76
2019-02-10T02:01:49.494Z,99988.47
2019-02-10T02:02:54.865Z,99983.69
2019-02-10T02:03:59.863Z,99999.44
2019-02-10T02:05:06.632Z,99984.84
2019-02-10T02:06:11.747Z,99980.88
2019-02-10T02:07:16.802Z,99969.58
2019-02-10T02:08:21.875Z,99978.50
2019-02-10T02:09:27.030Z,99970.91
2019-02-10T02:10:32.150Z,99962.59
2019-02-10T02:11:37.622Z,99958.97
2019-02-10T02:12:42.660Z,99952.46
2019-02-10T02:13:48.089Z,99945.70
2019-02-10T02:14:53.121Z,99949.68
2019-02-10T02:15:58.765Z,99939.07
2019-02-10T02:17:03.914Z,99948.36
2019-02-10T02:18:09.331Z,99941.72
2019-02-10T02:19:14.390Z,99936.06
2019-02-10T02:20:19.589Z,99941.23
2019-02-10T02:21:24.891Z,99931.79
2019-02-10T02:22:29.914Z,99930.11
2019-02-10T02:23:34.912Z,99929.62
2019-02-10T02:24:39.844Z,99933.12
2019-02-10T02:25:44.826Z,99926.84
2019-02-10T02:26:49.829Z,99931.14
2019-02-10T02:27:54.880Z,99929.20
2019-02-10T02:28:59.984Z,99934.02
2019-02-10T02:30:07.108Z,99931.02
2019-02-10T02:31:12.310Z,99923.19
2019-02-10T02:32:17.405Z,99918.17
2019-02-10T02:33:22.395Z,99912.86
2019-02-10T02:34:27.438Z,99909.41
2019-02-10T02:35:32.471Z,99907.72
2019-02-10T02:36:42.208Z,99896.92
2019-02-10T02:37:47.409Z,99896.92
2019-02-10T02:38:52.522Z,99893.06
2019-02-10T02:39:57.510Z,99892.88
2019-02-10T02:41:02.536Z,99885.50
2019-02-10T02:42:09.552Z,99885.50
2019-02-10T02:43:14.573Z,99888.09
2019-02-10T02:44:19.606Z,99871.49
2019-02-10T02:45:24.521Z,99880.55
2019-02-10T02:46:29.564Z,99868.23
2019-02-10T02:47:34.589Z,99869.84
2019-02-10T02:48:39.553Z,99862.02
2019-02-10T02:49:44.579Z,99851.70
2019-02-10T02:50:50.153Z,99846.98
2019-02-10T02:51:55.171Z,99847.14
2019-02-10T02:53:00.515Z,99846.78
2019-02-10T02:54:05.499Z,99844.42
2019-02-10T02:55:10.923Z,99838.28
2019-02-10T02:56:16.318Z,99837.92
2019-02-10T02:57:21.823Z,99821.83
2019-02-10T02:58:26.878Z,99821.83
2019-02-10T02:59:32.182Z,99817.30
2019-02-10T03:00:37.217Z,99805.86
2019-02-10T03:01:42.602Z,99805.86
2019-02-10T03:02:47.545Z,99798.39
2019-02-10T03:03:52.729Z,99805.02
2019-02-10T03:04:57.642Z,99792.22
2019-02-10T03:06:02.927Z,99788.56
2019-02-10T03:07:17.552Z,99788.92
2019-02-10T03:08:14.897Z,99794.41
2019-02-10T03:09:20.707Z,99788.30
2019-02-10T03:10:25.917Z,99783.33
2019-02-10T03:11:31.214Z,99779.03
2019-02-10T03:12:36.653Z,99778.19
2019-02-10T03:13:41.672Z,99778.51
2019-02-10T03:14:46.801Z,99770.85
2019-02-10T03:15:52.100Z,99767.10
2019-02-10T03:16:57.088Z,99763.84
2019-02-10T03:18:02.420Z,99763.84
2019-02-10T03:19:07.596Z,99749.55
2019-02-10T03:20:12.764Z,99747.52
2019-02-10T03:21:17.708Z,99751.78
2019-02-10T03:22:22.670Z,99751.78
2019-02-10T03:23:27.877Z,99742.52
2019-02-10T03:24:33.273Z,99737.38
2019-02-10T03:25:38.597Z,99739.67
2019-02-10T03:26:43.565Z,99735.86
2019-02-10T03:27:48.545Z,99728.03
2019-02-10T03:28:53.633Z,99728.03
2019-02-10T03:29:59.388Z,99727.00
2019-02-10T03:31:04.806Z,99710.84
2019-02-10T03:32:09.878Z,99710.84
2019-02-10T03:33:15.311Z,99710.56
2019-02-10T03:34:20.787Z,99707.42
2019-02-10T03:35:25.814Z,99688.98
2019-02-10T03:36:30.844Z,99688.98
2019-02-10T03:37:36.153Z,99689.36
2019-02-10T03:38:41.092Z,99682.55
2019-02-10T03:39:46.307Z,99682.55
2019-02-10T03:40:51.625Z,99679.55
2019-02-10T03:41:56.787Z,99667.78
2019-02-10T03:43:01.806Z,99666.23
2019-02-10T03:44:06.791Z,99662.42
2019-02-10T03:45:12.067Z,99651.83
2019-02-10T03:46:17.420Z,99651.13
2019-02-10T03:47:22.742Z,99633.23
2019-02-10T03:48:28.166Z,99613.85
2019-02-10T03:49:33.276Z,99613.85
2019-02-10T03:50:38.445Z,99610.66
2019-02-10T03:51:43.731Z,99628.77
2019-02-10T03:52:48.792Z,99634.69
2019-02-10T03:53:53.840Z,99635.49
2019-02-10T03:54:58.994Z,99629.16
2019-02-10T03:56:04.016Z,99611.24
2019-02-10T03:57:08.978Z,99620.52
2019-02-10T03:58:14.084Z,99606.72
2019-02-10T03:59:19.773Z,99614.34
2019-02-10T04:00:24.801Z,99604.73
2019-02-10T04:01:30.310Z,99594.97
2019-02-10T04:02:35.639Z,99591.33
2019-02-10T04:03:40.716Z,99578.09
2019-02-10T04:04:46.059Z,99566.33
2019-02-10T04:05:51.091Z,99580.12
2019-02-10T04:06:56.057Z,99583.92
2019-02-10T04:08:01.128Z,99577.66
2019-02-10T04:09:07.253Z,99571.82
2019-02-10T04:10:12.499Z,99577.66
2019-02-10T04:11:17.753Z,99564.91
2019-02-10T04:12:22.799Z,99559.13
2019-02-10T04:13:27.843Z,99546.66
2019-02-10T04:14:32.902Z,99547.69
2019-02-10T04:15:37.878Z,99532.16
2019-02-10T04:16:42.840Z,99533.83
2019-02-10T04:17:48.129Z,99536.97
2019-02-10T04:18:53.333Z,99536.75
2019-02-10T04:19:58.372Z,99528.31
2019-02-10T04:21:03.426Z,99533.48
2019-02-10T04:22:08.519Z,99532.64
2019-02-10T04:23:13.468Z,99521.02
2019-02-10T04:24:18.735Z,99508.32
2019-02-10T04:25:23.748Z,99508.81
2019-02-10T04:26:28.822Z,99498.70
2019-02-10T04:27:34.095Z,99497.00
2019-02-10T04:28:39.135Z,99505.33
2019-02-10T04:29:44.295Z,99497.37
2019-02-10T04:30:49.261Z,99502.67
2019-02-10T04:31:54.324Z,99491.73
2019-02-10T04:32:59.382Z,99490.41
2019-02-10T04:34:04.400Z,99484.63
2019-02-10T04:35:09.413Z,99478.00
2019-02-10T04:36:14.457Z,99482.46
2019-02-10T04:37:19.802Z,99465.60
2019-02-10T04:38:24.961Z,99462.60
2019-02-10T04:39:29.998Z,99453.15
2019-02-10T04:40:35.081Z,99453.15
2019-02-10T04:41:40.370Z,99442.02
2019-02-10T04:42:45.428Z,99446.70
2019-02-10T04:43:50.371Z,99440.91
2019-02-10T04:44:55.386Z,99428.16
2019-02-10T04:46:00.626Z,99429.62
2019-02-10T04:47:05.771Z,99421.01
2019-02-10T04:48:10.757Z,99421.01
2019-02-10T04:49:16.019Z,99411.73
2019-02-10T04:50:21.588Z,99408.73
2019-02-10T04:51:26.583Z,99402.12
2019-02-10T04:52:31.801Z,99394.18
2019-02-10T04:53:36.948Z,99386.23
2019-02-10T04:54:41.912Z,99393.69
2019-02-10T04:56:10.264Z,99381.78
2019-02-10T04:57:15.207Z,99371.19
2019-02-10T04:58:20.319Z,99368.54
2019-02-10T04:59:25.327Z,99368.54
2019-02-10T05:00:30.374Z,99361.09
2019-02-10T05:01:35.326Z,99356.27
2019-02-10T05:02:40.572Z,99354.63
2019-02-10T05:03:45.478Z,99345.99
2019-02-10T05:04:50.980Z,99352.61
2019-02-10T05:05:55.999Z,99342.02
2019-02-10T05:07:01.381Z,99334.56
2019-02-10T05:08:06.972Z,99327.95
2019-02-10T05:09:12.270Z,99324.81
2019-02-10T05:10:17.271Z,99324.81
2019-02-10T05:11:22.217Z,99330.11
2019-02-10T05:12:27.494Z,99320.17
2019-02-10T05:13:32.638Z,99320.17
2019-02-10T05:14:37.590Z,99312.37
2019-02-10T05:15:42.594Z,99307.08
2019-02-10T05:16:47.590Z,99313.20
2019-02-10T05:17:52.523Z,99309.23
2019-02-10T05:18:57.567Z,99301.64
2019-02-10T05:20:02.552Z,99296.00
2019-02-10T05:21:07.551Z,99289.38
2019-02-10T05:22:12.585Z,99286.08
2019-02-10T05:23:18.152Z,99277.16
2019-02-10T05:24:23.303Z,99277.16
2019-02-10T05:25:28.747Z,99278.83
2019-02-10T05:26:33.780Z,99278.48
2019-02-10T05:27:39.306Z,99271.87
2019-02-10T05:28:44.745Z,99268.06
2019-02-10T05:29:49.704Z,99259.77
2019-02-10T05:30:55.025Z,99259.60
2019-02-10T05:32:00.393Z,99255.31
2019-02-10T05:33:05.560Z,99255.31
2019-02-10T05:34:10.537Z,99251.00
2019-02-10T05:35:15.559Z,99250.02
2019-02-10T05:36:21.219Z,99247.37
2019-02-10T05:37:26.633Z,99246.37
2019-02-10T05:38:31.953Z,99239.44
2019-02-10T05:39:36.929Z,99243.72
2019-02-10T05:40:42.000Z,99226.69
2019-02-10T05:41:47.059Z,99226.69
2019-02-10T05:42:52.020Z,99224.52
2019-02-10T05:43:57.060Z,99224.52
2019-02-10T05:45:02.423Z,99220.91
2019-02-10T05:46:07.379Z,99209.83
2019-02-10T05:47:12.317Z,99215.44
2019-02-10T05:48:17.306Z,99215.44
2019-02-10T05:49:22.324Z,99214.46
2019-02-10T05:50:28.280Z,99209.30
2019-02-10T05:51:33.527Z,99209.17
2019-02-10T05:52:38.511Z,99207.01
2019-02-10T05:53:43.569Z,99208.33
2019-02-10T05:54:48.549Z,99198.58
2019-02-10T05:55:54.694Z,99191.09
2019-02-10T05:56:59.597Z,99184.16
2019-02-10T05:58:04.643Z,99191.82
2019-02-10T05:59:10.004Z,99191.82
2019-02-10T06:00:15.071Z,99184.51
2019-02-10T06:02:44.366Z,99177.05
2019-02-10T06:03:49.719Z,99177.05
2019-02-10T06:04:54.976Z,99175.55
2019-02-10T06:05:59.934Z,99169.42
2019-02-10T06:07:08.873Z,99162.98
2019-02-10T06:08:14.246Z,99161.48
2019-02-10T06:09:19.663Z,99161.48
2019-02-10T06:10:24.737Z,99164.48
2019-02-10T06:11:29.822Z,99160.51
2019-02-10T06:12:34.823Z,99156.36
2019-02-10T06:13:40.029Z,99152.39
2019-02-10T06:14:46.429Z,99151.41
2019-02-10T06:15:51.762Z,99143.47
2019-02-10T06:16:56.974Z,99146.47
2019-02-10T06:18:02.022Z,99139.84
2019-02-10T06:19:07.028Z,99139.84
2019-02-10T06:20:12.091Z,99133.86
2019-02-10T06:21:17.310Z,99125.92
2019-02-10T06:22:22.561Z,99123.62
2019-02-10T06:23:27.562Z,99111.39
2019-02-10T06:24:33.072Z,99111.39
2019-02-10T06:25:38.082Z,99114.38
2019-02-10T06:26:43.505Z,99105.29
2019-02-10T06:27:49.232Z,99105.15
2019-02-10T06:28:54.211Z,99097.20
2019-02-10T06:29:59.719Z,99098.04
2019-02-10T06:31:04.988Z,99092.89
2019-02-10T06:32:10.263Z,99093.23
2019-02-10T06:33:15.671Z,99088.92
2019-02-10T06:34:20.670Z,99088.92
2019-02-10T06:35:26.083Z,99091.91
2019-02-10T06:36:31.053Z,99081.95
2019-02-10T06:37:36.070Z,99092.92
2019-02-10T06:38:41.332Z,99076.20
2019-02-10T06:39:46.812Z,99078.67
2019-02-10T06:40:51.757Z,99078.17
2019-02-10T06:41:56.708Z,99071.91
2019-02-10T06:43:01.650Z,99073.09
2019-02-10T06:44:07.031Z,99069.42
2019-02-10T06:45:15.094Z,99059.18
2019-02-10T06:46:20.384Z,99052.56
2019-02-10T06:47:25.344Z,99033.02
2019-02-10T06:48:30.948Z,99031.21
2019-02-10T06:49:35.989Z,99031.21
2019-02-10T06:50:40.962Z,99035.17
2019-02-10T06:51:45.910Z,99026.73
2019-02-10T06:52:51.705Z,99027.08
2019-02-10T06:53:56.997Z,99013.50
2019-02-10T06:55:02.068Z,99013.50
2019-02-10T06:56:07.591Z,99010.70
2019-02-10T06:57:13.267Z,98998.45
2019-02-10T06:58:18.333Z,98990.48
2019-02-10T06:59:42.498Z,98995.30
2019-02-10T07:01:09.517Z,98988.69
2019-02-10T07:02:46.632Z,98984.38
2019-02-10T07:04:04.098Z,98975.94
2019-02-10T07:05:10.882Z,98977.44
2019-02-10T07:06:16.323Z,98960.84
2019-02-10T07:07:21.303Z,98971.80
2019-02-10T07:08:30.581Z,98967.48
2019-02-10T07:09:33.043Z,98958.56
2019-02-10T07:10:38.346Z,98963.86
2019-02-10T07:11:43.675Z,98955.57
2019-02-10T07:12:52.806Z,98958.22
2019-02-10T07:13:59.673Z,98962.53
2019-02-10T07:15:04.797Z,98956.25
2019-02-10T07:16:35.538Z,98956.25
2019-02-10T07:18:16.162Z,98953.92
2019-02-10T07:19:57.430Z,98948.64
2019-02-10T07:21:03.183Z,98948.64
2019-02-10T07:22:54.805Z,98950.45
2019-02-10T07:24:35.697Z,98942.49
2019-02-10T07:26:00.929Z,98949.47
2019-02-10T07:27:13.584Z,98946.34
2019-02-10T07:28:44.792Z,98933.24
2019-02-10T07:30:28.195Z,98933.24
2019-02-10T07:31:41.616Z,98938.72
2019-02-10T07:32:49.822Z,98941.87
2019-02-10T07:34:48.202Z,98934.27
2019-02-10T07:36:33.131Z,98939.38
2019-02-10T07:38:18.837Z,98933.45
2019-02-10T07:39:41.955Z,98928.31
2019-02-10T07:41:39.602Z,98932.10
2019-02-10T07:43:18.988Z,98919.88
2019-02-10T07:44:51.025Z,98917.55
2019-02-10T07:46:46.374Z,98913.23
2019-02-10T07:48:17.729Z,98911.77
2019-02-10T07:49:51.696Z,98907.95
2019-02-10T07:51:46.774Z,98899.03
2019-02-10T07:53:29.406Z,98899.03
2019-02-10T07:55:21.834Z,98907.44
2019-02-10T07:57:20.348Z,98906.62
2019-02-10T07:58:50.687Z,98909.61
2019-02-10T08:00:25.555Z,98905.64
2019-02-10T08:01:57.381Z,98907.96
2019-02-10T08:03:24.846Z,98901.30
2019-02-10T08:04:58.231Z,98905.47
2019-02-10T08:06:42.581Z,98894.53
2019-02-10T08:08:02.778Z,98898.32
2019-02-10T08:09:22.032Z,98897.00
2019-02-10T08:10:56.511Z,98898.97
2019-02-10T08:12:29.762Z,98893.36
2019-02-10T08:14:06.884Z,98889.05
2019-02-10T08:15:40.948Z,98884.05
2019-02-10T08:17:16.509Z,98884.05
2019-02-10T08:19:09.108Z,98881.55
2019-02-10T08:20:38.328Z,98878.89
2019-02-10T08:22:21.711Z,98885.67
2019-02-10T08:23:52.913Z,98890.63
2019-02-10T08:25:21.847Z,98890.63
2019-02-10T08:27:04.027Z,98881.00
2019-02-10T08:28:55.032Z,98873.05
2019-02-10T08:30:40.462Z,98859.73
2019-02-10T08:32:18.485Z,98849.80
2019-02-10T08:33:37.615Z,98854.42
2019-02-10T08:35:13.511Z,98846.80
2019-02-10T08:36:39.348Z,98842.14
2019-02-10T08:38:12.355Z,98848.12
2019-02-10T08:39:40.092Z,98845.77
2019-02-10T08:41:12.707Z,98846.75
2019-02-10T08:42:40.414Z,98843.47
2019-02-10T08:43:58.194Z,98842.79
2019-02-10T08:45:34.308Z,98843.13
2019-02-10T08:47:14.770Z,98833.15
2019-02-10T08:49:10.586Z,98846.74
2019-02-10T08:51:05.909Z,98841.58
2019-02-10T08:52:41.155Z,98824.97
2019-02-10T08:53:47.665Z,98830.95
2019-02-10T08:54:52.698Z,98825.15
2019-02-10T08:55:58.114Z,98820.48
2019-02-10T08:57:03.247Z,98815.81
2019-02-10T08:58:08.490Z,98814.81
2019-02-10T08:59:13.848Z,98809.84
2019-02-10T09:00:19.224Z,98816.62
2019-02-10T09:01:24.260Z,98815.44
2019-02-10T09:02:29.477Z,98813.12
2019-02-10T09:03:34.514Z,98805.80
2019-02-10T09:04:39.611Z,98806.46
2019-02-10T09:05:45.022Z,98799.47
2019-02-10T09:06:50.037Z,98805.08
2019-02-10T09:07:55.040Z,98805.25
2019-02-10T09:09:02.546Z,98810.04
2019-02-10T09:10:08.650Z,98801.08
2019-02-10T09:11:13.957Z,98802.41
2019-02-10T09:12:19.102Z,98800.09
2019-02-10T09:13:24.196Z,98806.03
2019-02-10T09:14:29.509Z,98790.10
2019-02-10T09:15:34.795Z,98795.75
2019-02-10T09:16:39.785Z,98800.37
2019-02-10T09:17:44.909Z,98792.10
2019-02-10T09:18:49.997Z,98798.55
2019-02-10T09:19:55.555Z,98804.19
2019-02-10T09:21:00.666Z,98800.70
2019-02-10T09:22:05.674Z,98798.55
2019-02-10T09:23:10.758Z,98807.34
2019-02-10T09:24:16.088Z,98803.69
2019-02-10T09:25:21.121Z,98800.70
2019-02-10T09:26:26.361Z,98790.08
2019-02-10T09:27:31.592Z,98799.73
2019-02-10T09:28:36.693Z,98798.77
2019-02-10T09:29:41.963Z,98791.64
2019-02-10T09:30:47.047Z,98797.81
2019-02-10T09:31:52.206Z,98793.55
2019-02-10T09:32:57.182Z,98802.36
2019-02-10T09:34:02.188Z,98791.56
2019-02-10T09:35:07.807Z,98780.31
2019-02-10T09:36:12.798Z,98783.95
2019-02-10T09:37:17.964Z,98785.64
2019-02-10T09:38:23.022Z,98783.67
2019-02-10T09:39:28.094Z,98770.06
2019-02-10T09:40:33.029Z,98776.40
2019-02-10T09:41:41.073Z,98775.38
2019-02-10T09:42:46.175Z,98769.23
2019-02-10T09:43:51.537Z,98765.11
2019-02-10T09:44:56.794Z,98764.47
2019-02-10T09:46:01.784Z,98759.02
2019-02-10T09:47:07.172Z,98761.84
2019-02-10T09:48:12.270Z,98758.55
2019-02-10T09:49:17.689Z,98760.67
2019-02-10T09:50:22.707Z,98764.16
2019-02-10T09:51:28.264Z,98768.33
2019-02-10T09:52:33.321Z,98759.20
2019-02-10T09:53:38.655Z,98763.67
2019-02-10T09:54:43.827Z,98761.02
2019-02-10T09:55:49.206Z,98762.05
2019-02-10T09:56:54.280Z,98765.19
2019-02-10T09:57:59.340Z,98768.31
2019-02-10T09:59:04.380Z,98767.84
2019-02-10T10:00:11.897Z,98766.16
2019-02-10T10:01:16.981Z,98760.52
2019-02-10T10:02:22.288Z,98761.53
2019-02-10T10:03:28.887Z,98760.37
2019-02-10T10:04:34.500Z,98763.22
2019-02-10T10:05:40.023Z,98768.34
2019-02-10T10:06:45.019Z,98765.88
2019-02-10T10:07:50.045Z,98757.59
2019-02-10T10:08:55.034Z,98762.59
2019-02-10T10:10:00.298Z,98759.94
2019-02-10T10:11:05.656Z,98765.55
2019-02-10T10:12:10.753Z,98764.72
2019-02-10T10:13:15.825Z,98755.62
2019-02-10T10:14:21.197Z,98759.27
2019-02-10T10:15:26.607Z,98759.27
2019-02-10T10:16:32.098Z,98763.24
2019-02-10T10:17:37.257Z,98761.58
2019-02-10T10:18:42.740Z,98755.97
2019-02-10T10:19:48.115Z,98765.26
2019-02-10T10:20:53.196Z,98764.09
2019-02-10T10:21:58.191Z,98746.70
2019-02-10T10:23:03.489Z,98754.18
2019-02-10T10:24:08.526Z,98745.08
2019-02-10T10:25:13.966Z,98751.05
2019-02-10T10:26:19.027Z,98751.05
2019-02-10T10:27:24.094Z,98754.38
2019-02-10T10:28:29.285Z,98743.28
2019-02-10T10:29:34.531Z,98750.70
2019-02-10T10:30:39.940Z,98744.25
2019-02-10T10:31:44.995Z,98744.25
2019-02-10T10:32:50.805Z,98737.92
2019-02-10T10:33:56.989Z,98739.59
2019-02-10T10:35:02.009Z,98743.76
2019-02-10T10:36:07.095Z,98743.09
2019-02-10T10:37:12.053Z,98750.55
2019-02-10T10:38:17.410Z,98737.45
2019-02-10T10:39:27.365Z,98735.47
2019-02-10T10:40:29.233Z,98733.45
2019-02-10T10:41:34.312Z,98749.37
2019-02-10T10:42:39.373Z,98739.09
2019-02-10T10:43:44.545Z,98734.92
2019-02-10T10:44:49.660Z,98747.39
2019-02-10T10:45:54.837Z,98750.04
2019-02-10T10:46:59.799Z,98752.69
2019-02-10T10:48:04.906Z,98760.95
2019-02-10T10:49:09.836Z,98761.13
2019-02-10T10:50:15.314Z,98758.93
2019-02-10T10:51:20.536Z,98751.64
2019-02-10T10:52:25.929Z,98745.65
2019-02-10T10:53:30.985Z,98750.11
2019-02-10T10:54:42.666Z,98755.56
2019-02-10T10:55:42.666Z,98753.23
2019-02-10T10:56:47.639Z,98742.29
2019-02-10T10:57:52.597Z,98738.31
2019-02-10T10:58:57.576Z,98747.59
2019-02-10T11:00:02.904Z,98745.28
2019-02-10T11:01:08.176Z,98749.59
2019-02-10T11:02:13.483Z,98742.27
2019-02-10T11:03:18.707Z,98739.00
2019-02-10T11:04:23.946Z,98739.97
2019-02-10T11:05:29.043Z,98743.59
2019-02-10T11:06:34.093Z,98737.45
2019-02-10T11:07:39.302Z,98742.27
2019-02-10T11:08:44.792Z,98743.59
2019-02-10T11:09:50.120Z,98746.25
2019-02-10T11:10:55.458Z,98743.26
2019-02-10T11:12:00.357Z,98746.25
2019-02-10T11:13:06.029Z,98743.73
2019-02-10T11:14:11.275Z,98754.16
2019-02-10T11:15:16.679Z,98749.52
2019-02-10T11:16:21.911Z,98743.22
2019-02-10T11:17:26.863Z,98743.03
2019-02-10T11:18:31.976Z,98735.40
2019-02-10T11:19:36.912Z,98732.55
2019-02-10T11:20:42.140Z,98734.55
2019-02-10T11:21:47.086Z,98733.02
2019-02-10T11:22:52.232Z,98736.51
2019-02-10T11:23:57.323Z,98729.71
2019-02-10T11:25:02.312Z,98728.19
2019-02-10T11:26:07.367Z,98737.98
2019-02-10T11:27:12.609Z,98732.17
2019-02-10T11:28:17.587Z,98732.84
2019-02-10T11:29:22.557Z,98738.78
2019-02-10T11:30:27.578Z,98741.08
2019-02-10T11:31:32.998Z,98730.44
2019-02-10T11:32:37.933Z,98731.41
2019-02-10T11:33:42.889Z,98734.70
2019-02-10T11:34:47.846Z,98723.08
2019-02-10T11:35:53.282Z,98724.21
2019-02-10T11:36:58.373Z,98724.55
2019-02-10T11:38:03.527Z,98720.40
2019-02-10T11:39:09.035Z,98719.07
2019-02-10T11:40:14.919Z,98711.41
2019-02-10T11:41:20.290Z,98713.07
2019-02-10T11:42:25.736Z,98723.19
2019-02-10T11:43:31.025Z,98719.70
2019-02-10T11:44:36.035Z,98726.34
2019-02-10T11:45:41.051Z,98728.86
2019-02-10T11:46:46.138Z,98729.36
2019-02-10T11:47:51.259Z,98728.36
2019-02-10T11:48:56.274Z,98729.16
2019-02-10T11:50:01.836Z,98728.31
2019-02-10T11:51:07.119Z,98731.62
2019-02-10T11:52:12.106Z,98718.66
2019-02-10T11:53:17.289Z,98720.64
2019-02-10T11:54:22.338Z,98728.61
2019-02-10T11:55:27.762Z,98735.25
2019-02-10T11:56:32.773Z,98731.13
2019-02-10T11:57:38.205Z,98733.26
2019-02-10T11:58:43.179Z,98728.28
2019-02-10T11:59:48.238Z,98724.62
2019-02-10T12:00:53.271Z,98722.11
2019-02-10T12:01:58.566Z,98724.96
2019-02-10T12:03:03.869Z,98728.95
2019-02-10T12:04:08.864Z,98726.13
2019-02-10T12:05:13.985Z,98725.98
2019-02-10T12:06:19.313Z,98732.82
2019-02-10T12:07:24.560Z,98727.34
2019-02-10T12:08:35.584Z,98731.02
2019-02-10T12:09:36.310Z,98728.03
2019-02-10T12:10:41.707Z,98729.50
2019-02-10T12:11:46.881Z,98731.98
2019-02-10T12:12:52.016Z,98736.27
2019-02-10T12:13:57.470Z,98738.30
2019-02-10T12:15:03.069Z,98733.68
2019-02-10T12:16:08.072Z,98747.45
2019-02-10T12:17:13.436Z,98746.98
2019-02-10T12:18:18.460Z,98752.65
2019-02-10T12:19:23.464Z,98745.34
2019-02-10T12:20:28.575Z,98748.53
2019-02-10T12:21:33.846Z,98749.33
2019-02-10T12:22:39.021Z,98753.17
2019-02-10T12:23:43.973Z,98748.89
2019-02-10T12:24:49.136Z,98754.02
2019-02-10T12:25:54.071Z,98748.41
2019-02-10T12:26:58.997Z,98752.55
2019-02-10T12:28:04.193Z,98754.08
2019-02-10T12:29:09.555Z,98751.25
2019-02-10T12:30:14.713Z,98746.44
2019-02-10T12:31:19.733Z,98747.46
2019-02-10T12:32:24.810Z,98755.09
2019-02-10T12:33:29.753Z,98747.32
2019-02-10T12:34:35.063Z,98747.48
2019-02-10T12:35:40.324Z,98745.82
2019-02-10T12:36:45.263Z,98751.82
2019-02-10T12:37:50.215Z,98753.00
2019-02-10T12:38:55.652Z,98747.36
2019-02-10T12:40:01.548Z,98750.17
2019-02-10T12:41:06.600Z,98751.84
2019-02-10T12:42:11.532Z,98751.34
2019-02-10T12:43:16.566Z,98748.53
2019-02-10T12:44:21.653Z,98751.34
2019-02-10T12:45:26.774Z,98745.20
2019-02-10T12:46:31.783Z,98756.16
2019-02-10T12:47:36.812Z,98752.34
2019-02-10T12:48:42.229Z,98752.83
2019-02-10T12:49:47.238Z,98755.48
2019-02-10T12:50:52.650Z,98759.47
2019-02-10T12:51:58.539Z,98750.37
2019-02-10T12:53:03.853Z,98755.20
2019-02-10T12:54:08.830Z,98754.86
2019-02-10T12:55:14.368Z,98754.23
2019-02-10T12:56:19.831Z,98756.55
2019-02-10T12:57:25.210Z,98756.05
2019-02-10T12:58:30.295Z,98752.91
2019-02-10T12:59:35.242Z,98752.56
2019-02-10T13:00:40.526Z,98756.24
2019-02-10T13:01:45.618Z,98756.87
2019-02-10T13:02:50.960Z,98760.52
2019-02-10T13:03:55.980Z,98766.52
2019-02-10T13:05:01.005Z,98759.89
2019-02-10T13:06:06.342Z,98764.83
2019-02-10T13:07:11.975Z,98766.16
2019-02-10T13:08:17.020Z,98764.19
2019-02-10T13:09:22.118Z,98768.82
2019-02-10T13:10:27.111Z,98775.63
2019-02-10T13:11:32.324Z,98774.81
2019-02-10T13:12:37.682Z,98778.39
2019-02-10T13:13:42.737Z,98775.38
2019-02-10T13:14:47.990Z,98775.19
2019-02-10T13:15:55.484Z,98766.34
2019-02-10T13:16:59.876Z,98761.84
2019-02-10T13:18:04.910Z,98766.78